sensor_id;sensor_type;location;lat;lon;timestamp;P1;durP1;ratioP1;P2;durP2;ratioP2
16969;SDS011;8601;48.718;8.992;2023-03-21T00:01:36;4.53;;;4.13;;
16969;SDS011;8601;48.718;8.992;2023-03-21T00:04:03;4.93;;;4.30;;
16969;SDS011;8601;48.718;8.992;2023-03-21T00:06:30;5.30;;;4.17;;
16969;SDS011;8601;48.718;8.992;2023-03-21T00:08:58;5.70;;;4.33;;
16969;SDS011;8601;48.718;8.992;2023-03-21T00:11:25;6.30;;;4.43;;
16969;SDS011;8601;48.718;8.992;2023-03-21T00:13:52;5.07;;;4.20;;
16969;SDS011;8601;48.718;8.992;2023-03-21T00:16:22;4.73;;;4.23;;
16969;SDS011;8601;48.718;8.992;2023-03-21T00:18:53;5.47;;;4.07;;
16969;SDS011;8601;48.718;8.992;2023-03-21T00:21:20;5.80;;;4.00;;
16969;SDS011;8601;48.718;8.992;2023-03-21T00:23:52;4.70;;;4.20;;
16969;SDS011;8601;48.718;8.992;2023-03-21T00:26:21;4.87;;;4.10;;
16969;SDS011;8601;48.718;8.992;2023-03-21T00:28:48;5.00;;;4.50;;
16969;SDS011;8601;48.718;8.992;2023-03-21T00:31:15;5.50;;;4.20;;
16969;SDS011;8601;48.718;8.992;2023-03-21T00:33:42;5.13;;;4.63;;
16969;SDS011;8601;48.718;8.992;2023-03-21T00:36:10;4.90;;;4.40;;
16969;SDS011;8601;48.718;8.992;2023-03-21T00:38:38;6.77;;;4.90;;
16969;SDS011;8601;48.718;8.992;2023-03-21T00:41:06;6.20;;;4.77;;
16969;SDS011;8601;48.718;8.992;2023-03-21T00:43:36;5.73;;;4.60;;
16969;SDS011;8601;48.718;8.992;2023-03-21T00:46:04;4.73;;;4.33;;
16969;SDS011;8601;48.718;8.992;2023-03-21T00:48:31;5.53;;;4.30;;
16969;SDS011;8601;48.718;8.992;2023-03-21T00:50:58;5.37;;;4.40;;
16969;SDS011;8601;48.718;8.992;2023-03-21T00:53:25;6.53;;;4.70;;
16969;SDS011;8601;48.718;8.992;2023-03-21T00:55:53;5.77;;;4.13;;
16969;SDS011;8601;48.718;8.992;2023-03-21T00:58:20;5.20;;;4.47;;
16969;SDS011;8601;48.718;8.992;2023-03-21T01:00:48;5.30;;;4.80;;
16969;SDS011;8601;48.718;8.992;2023-03-21T01:03:15;5.60;;;4.47;;
16969;SDS011;8601;48.718;8.992;2023-03-21T01:05:45;5.33;;;4.33;;
16969;SDS011;8601;48.718;8.992;2023-03-21T01:08:32;4.30;;;3.90;;
16969;SDS011;8601;48.718;8.992;2023-03-21T01:11:00;5.50;;;4.40;;
16969;SDS011;8601;48.718;8.992;2023-03-21T01:13:30;4.80;;;4.40;;
16969;SDS011;8601;48.718;8.992;2023-03-21T01:15:59;4.80;;;4.23;;
16969;SDS011;8601;48.718;8.992;2023-03-21T01:18:27;5.27;;;4.77;;
16969;SDS011;8601;48.718;8.992;2023-03-21T01:20:55;4.80;;;4.40;;
16969;SDS011;8601;48.718;8.992;2023-03-21T01:23:24;5.13;;;4.60;;
16969;SDS011;8601;48.718;8.992;2023-03-21T01:25:52;5.17;;;4.67;;
16969;SDS011;8601;48.718;8.992;2023-03-21T01:28:20;4.67;;;4.27;;
16969;SDS011;8601;48.718;8.992;2023-03-21T01:30:48;5.37;;;4.30;;
16969;SDS011;8601;48.718;8.992;2023-03-21T01:33:18;4.67;;;4.20;;
16969;SDS011;8601;48.718;8.992;2023-03-21T01:35:46;5.30;;;4.30;;
16969;SDS011;8601;48.718;8.992;2023-03-21T01:38:14;6.93;;;4.80;;
16969;SDS011;8601;48.718;8.992;2023-03-21T01:40:41;4.73;;;4.10;;
16969;SDS011;8601;48.718;8.992;2023-03-21T01:43:14;4.77;;;4.37;;
16969;SDS011;8601;48.718;8.992;2023-03-21T01:48:37;5.77;;;4.30;;
16969;SDS011;8601;48.718;8.992;2023-03-21T01:51:07;4.13;;;3.83;;
16969;SDS011;8601;48.718;8.992;2023-03-21T01:53:35;5.83;;;4.33;;
16969;SDS011;8601;48.718;8.992;2023-03-21T01:56:05;5.53;;;4.10;;
16969;SDS011;8601;48.718;8.992;2023-03-21T01:58:35;5.17;;;4.13;;
16969;SDS011;8601;48.718;8.992;2023-03-21T02:01:04;5.37;;;4.40;;
16969;SDS011;8601;48.718;8.992;2023-03-21T02:03:31;4.83;;;4.33;;
16969;SDS011;8601;48.718;8.992;2023-03-21T02:06:06;4.83;;;4.30;;
16969;SDS011;8601;48.718;8.992;2023-03-21T02:08:37;4.60;;;4.20;;
16969;SDS011;8601;48.718;8.992;2023-03-21T02:11:05;5.10;;;4.10;;
16969;SDS011;8601;48.718;8.992;2023-03-21T02:13:35;4.57;;;4.23;;
16969;SDS011;8601;48.718;8.992;2023-03-21T02:16:04;5.60;;;4.60;;
16969;SDS011;8601;48.718;8.992;2023-03-21T02:18:40;5.13;;;4.70;;
16969;SDS011;8601;48.718;8.992;2023-03-21T02:24:33;8.17;;;5.17;;
16969;SDS011;8601;48.718;8.992;2023-03-21T02:27:20;4.83;;;4.33;;
16969;SDS011;8601;48.718;8.992;2023-03-21T02:29:58;5.17;;;4.67;;
16969;SDS011;8601;48.718;8.992;2023-03-21T02:33:08;5.17;;;4.60;;
16969;SDS011;8601;48.718;8.992;2023-03-21T02:35:59;5.30;;;4.80;;
16969;SDS011;8601;48.718;8.992;2023-03-21T02:38:44;4.70;;;4.30;;
16969;SDS011;8601;48.718;8.992;2023-03-21T02:41:20;4.77;;;4.33;;
16969;SDS011;8601;48.718;8.992;2023-03-21T02:43:55;5.07;;;4.53;;
16969;SDS011;8601;48.718;8.992;2023-03-21T02:46:29;4.50;;;4.10;;
16969;SDS011;8601;48.718;8.992;2023-03-21T02:49:02;4.93;;;4.53;;
16969;SDS011;8601;48.718;8.992;2023-03-21T02:51:36;5.07;;;4.07;;
16969;SDS011;8601;48.718;8.992;2023-03-21T02:54:08;4.53;;;4.13;;
16969;SDS011;8601;48.718;8.992;2023-03-21T02:56:39;5.13;;;4.63;;
16969;SDS011;8601;48.718;8.992;2023-03-21T02:59:07;5.43;;;4.30;;
16969;SDS011;8601;48.718;8.992;2023-03-21T03:01:34;4.50;;;4.10;;
16969;SDS011;8601;48.718;8.992;2023-03-21T03:04:01;5.77;;;4.07;;
16969;SDS011;8601;48.718;8.992;2023-03-21T03:06:29;8.70;;;5.80;;
16969;SDS011;8601;48.718;8.992;2023-03-21T03:09:15;4.90;;;4.50;;
16969;SDS011;8601;48.718;8.992;2023-03-21T03:11:52;4.80;;;4.40;;
16969;SDS011;8601;48.718;8.992;2023-03-21T03:14:37;5.40;;;4.87;;
16969;SDS011;8601;48.718;8.992;2023-03-21T03:17:20;5.43;;;4.93;;
16969;SDS011;8601;48.718;8.992;2023-03-21T03:20:03;5.37;;;4.57;;
16969;SDS011;8601;48.718;8.992;2023-03-21T03:22:40;5.30;;;4.60;;
16969;SDS011;8601;48.718;8.992;2023-03-21T03:25:13;5.00;;;4.50;;
16969;SDS011;8601;48.718;8.992;2023-03-21T03:27:46;5.53;;;4.57;;
16969;SDS011;8601;48.718;8.992;2023-03-21T03:30:16;4.83;;;4.40;;
16969;SDS011;8601;48.718;8.992;2023-03-21T03:32:44;5.50;;;4.50;;
16969;SDS011;8601;48.718;8.992;2023-03-21T03:35:14;4.73;;;4.23;;
16969;SDS011;8601;48.718;8.992;2023-03-21T03:37:43;4.63;;;4.23;;
16969;SDS011;8601;48.718;8.992;2023-03-21T03:40:15;4.63;;;4.20;;
16969;SDS011;8601;48.718;8.992;2023-03-21T03:42:46;4.47;;;4.07;;
16969;SDS011;8601;48.718;8.992;2023-03-21T03:45:17;4.60;;;4.20;;
16969;SDS011;8601;48.718;8.992;2023-03-21T03:47:46;6.53;;;4.43;;
16969;SDS011;8601;48.718;8.992;2023-03-21T03:50:19;3.77;;;3.47;;
16969;SDS011;8601;48.718;8.992;2023-03-21T03:52:53;4.57;;;4.10;;
16969;SDS011;8601;48.718;8.992;2023-03-21T03:55:24;5.23;;;4.60;;
16969;SDS011;8601;48.718;8.992;2023-03-21T03:57:58;4.40;;;4.00;;
16969;SDS011;8601;48.718;8.992;2023-03-21T04:00:25;5.13;;;4.63;;
16969;SDS011;8601;48.718;8.992;2023-03-21T04:02:53;5.03;;;4.53;;
16969;SDS011;8601;48.718;8.992;2023-03-21T04:05:21;4.37;;;3.97;;
16969;SDS011;8601;48.718;8.992;2023-03-21T04:07:49;5.40;;;4.90;;
16969;SDS011;8601;48.718;8.992;2023-03-21T04:10:15;4.93;;;4.53;;
16969;SDS011;8601;48.718;8.992;2023-03-21T04:12:44;5.13;;;4.63;;
16969;SDS011;8601;48.718;8.992;2023-03-21T04:15:11;4.47;;;4.07;;
16969;SDS011;8601;48.718;8.992;2023-03-21T04:17:39;5.10;;;4.60;;
16969;SDS011;8601;48.718;8.992;2023-03-21T04:20:06;6.10;;;4.70;;
16969;SDS011;8601;48.718;8.992;2023-03-21T04:22:34;4.70;;;4.30;;
16969;SDS011;8601;48.718;8.992;2023-03-21T04:25:02;5.73;;;5.20;;
16969;SDS011;8601;48.718;8.992;2023-03-21T04:27:29;7.10;;;5.20;;
16969;SDS011;8601;48.718;8.992;2023-03-21T04:29:58;5.83;;;4.70;;
16969;SDS011;8601;48.718;8.992;2023-03-21T04:32:24;6.73;;;4.80;;
16969;SDS011;8601;48.718;8.992;2023-03-21T04:34:52;5.43;;;4.50;;
16969;SDS011;8601;48.718;8.992;2023-03-21T04:37:19;5.10;;;4.50;;
16969;SDS011;8601;48.718;8.992;2023-03-21T04:39:48;5.43;;;4.90;;
16969;SDS011;8601;48.718;8.992;2023-03-21T04:42:16;5.43;;;4.37;;
16969;SDS011;8601;48.718;8.992;2023-03-21T04:44:44;6.43;;;4.47;;
16969;SDS011;8601;48.718;8.992;2023-03-21T04:47:12;5.67;;;4.53;;
16969;SDS011;8601;48.718;8.992;2023-03-21T04:49:42;6.07;;;4.30;;
16969;SDS011;8601;48.718;8.992;2023-03-21T04:52:09;5.00;;;4.37;;
16969;SDS011;8601;48.718;8.992;2023-03-21T04:54:35;4.70;;;4.30;;
16969;SDS011;8601;48.718;8.992;2023-03-21T04:57:02;5.30;;;4.80;;
16969;SDS011;8601;48.718;8.992;2023-03-21T04:59:29;5.73;;;4.70;;
16969;SDS011;8601;48.718;8.992;2023-03-21T05:01:56;5.20;;;4.70;;
16969;SDS011;8601;48.718;8.992;2023-03-21T05:04:25;5.37;;;4.50;;
16969;SDS011;8601;48.718;8.992;2023-03-21T05:06:53;4.90;;;4.40;;
16969;SDS011;8601;48.718;8.992;2023-03-21T05:09:20;6.23;;;5.07;;
16969;SDS011;8601;48.718;8.992;2023-03-21T05:11:48;5.60;;;5.10;;
16969;SDS011;8601;48.718;8.992;2023-03-21T05:14:16;5.10;;;4.70;;
16969;SDS011;8601;48.718;8.992;2023-03-21T05:16:45;5.27;;;4.60;;
16969;SDS011;8601;48.718;8.992;2023-03-21T05:19:17;5.23;;;4.77;;
16969;SDS011;8601;48.718;8.992;2023-03-21T05:21:46;6.07;;;5.07;;
16969;SDS011;8601;48.718;8.992;2023-03-21T05:24:14;7.20;;;6.30;;
16969;SDS011;8601;48.718;8.992;2023-03-21T05:26:43;6.50;;;5.73;;
16969;SDS011;8601;48.718;8.992;2023-03-21T05:29:14;5.60;;;5.00;;
16969;SDS011;8601;48.718;8.992;2023-03-21T05:31:41;6.20;;;4.60;;
16969;SDS011;8601;48.718;8.992;2023-03-21T05:34:08;5.30;;;4.90;;
16969;SDS011;8601;48.718;8.992;2023-03-21T05:36:35;5.77;;;5.20;;
16969;SDS011;8601;48.718;8.992;2023-03-21T05:39:04;6.23;;;5.47;;
16969;SDS011;8601;48.718;8.992;2023-03-21T05:41:31;5.93;;;5.33;;
16969;SDS011;8601;48.718;8.992;2023-03-21T05:43:58;5.70;;;5.20;;
16969;SDS011;8601;48.718;8.992;2023-03-21T05:46:25;5.70;;;5.10;;
16969;SDS011;8601;48.718;8.992;2023-03-21T05:48:53;6.07;;;5.43;;
16969;SDS011;8601;48.718;8.992;2023-03-21T05:51:21;7.47;;;5.63;;
16969;SDS011;8601;48.718;8.992;2023-03-21T05:53:48;5.57;;;5.00;;
16969;SDS011;8601;48.718;8.992;2023-03-21T05:56:17;6.57;;;5.00;;
16969;SDS011;8601;48.718;8.992;2023-03-21T05:58:44;7.27;;;5.37;;
16969;SDS011;8601;48.718;8.992;2023-03-21T06:01:11;5.33;;;4.83;;
16969;SDS011;8601;48.718;8.992;2023-03-21T06:03:38;5.37;;;4.87;;
16969;SDS011;8601;48.718;8.992;2023-03-21T06:06:05;6.83;;;5.07;;
16969;SDS011;8601;48.718;8.992;2023-03-21T06:08:33;5.23;;;4.63;;
16969;SDS011;8601;48.718;8.992;2023-03-21T06:11:00;6.50;;;5.80;;
16969;SDS011;8601;48.718;8.992;2023-03-21T06:13:28;6.03;;;5.53;;
16969;SDS011;8601;48.718;8.992;2023-03-21T06:15:56;4.77;;;4.33;;
16969;SDS011;8601;48.718;8.992;2023-03-21T06:18:23;5.17;;;4.50;;
16969;SDS011;8601;48.718;8.992;2023-03-21T06:20:50;5.90;;;4.70;;
16969;SDS011;8601;48.718;8.992;2023-03-21T06:23:18;5.93;;;4.83;;
16969;SDS011;8601;48.718;8.992;2023-03-21T06:25:46;6.73;;;5.20;;
16969;SDS011;8601;48.718;8.992;2023-03-21T06:28:13;5.63;;;5.10;;
16969;SDS011;8601;48.718;8.992;2023-03-21T06:30:42;6.53;;;5.43;;
16969;SDS011;8601;48.718;8.992;2023-03-21T06:33:08;7.00;;;5.90;;
16969;SDS011;8601;48.718;8.992;2023-03-21T06:35:35;7.07;;;5.67;;
16969;SDS011;8601;48.718;8.992;2023-03-21T06:38:02;7.27;;;5.80;;
16969;SDS011;8601;48.718;8.992;2023-03-21T06:40:30;4.87;;;4.40;;
16969;SDS011;8601;48.718;8.992;2023-03-21T06:42:57;6.07;;;4.77;;
16969;SDS011;8601;48.718;8.992;2023-03-21T06:45:24;6.70;;;5.20;;
16969;SDS011;8601;48.718;8.992;2023-03-21T06:47:52;5.33;;;4.60;;
16969;SDS011;8601;48.718;8.992;2023-03-21T06:50:19;6.63;;;4.70;;
16969;SDS011;8601;48.718;8.992;2023-03-21T06:52:46;6.97;;;4.60;;
16969;SDS011;8601;48.718;8.992;2023-03-21T06:55:14;4.97;;;4.00;;
16969;SDS011;8601;48.718;8.992;2023-03-21T06:57:43;5.00;;;4.60;;
16969;SDS011;8601;48.718;8.992;2023-03-21T07:00:10;5.17;;;4.00;;
16969;SDS011;8601;48.718;8.992;2023-03-21T07:02:38;5.03;;;4.53;;
16969;SDS011;8601;48.718;8.992;2023-03-21T07:05:07;5.23;;;4.40;;
16969;SDS011;8601;48.718;8.992;2023-03-21T07:07:37;4.70;;;4.20;;
16969;SDS011;8601;48.718;8.992;2023-03-21T07:10:04;4.63;;;4.13;;
16969;SDS011;8601;48.718;8.992;2023-03-21T07:12:32;4.43;;;3.97;;
16969;SDS011;8601;48.718;8.992;2023-03-21T07:15:00;6.70;;;4.97;;
16969;SDS011;8601;48.718;8.992;2023-03-21T07:17:29;6.40;;;4.90;;
16969;SDS011;8601;48.718;8.992;2023-03-21T07:19:56;8.20;;;5.20;;
16969;SDS011;8601;48.718;8.992;2023-03-21T07:22:24;10.00;;;7.57;;
16969;SDS011;8601;48.718;8.992;2023-03-21T07:24:52;11.00;;;7.67;;
16969;SDS011;8601;48.718;8.992;2023-03-21T07:27:18;10.70;;;6.67;;
16969;SDS011;8601;48.718;8.992;2023-03-21T07:29:46;5.10;;;4.60;;
16969;SDS011;8601;48.718;8.992;2023-03-21T07:32:14;5.27;;;4.40;;
16969;SDS011;8601;48.718;8.992;2023-03-21T07:34:41;4.50;;;4.10;;
16969;SDS011;8601;48.718;8.992;2023-03-21T07:37:08;5.23;;;4.33;;
16969;SDS011;8601;48.718;8.992;2023-03-21T07:39:36;4.67;;;4.27;;
16969;SDS011;8601;48.718;8.992;2023-03-21T07:42:04;5.77;;;4.03;;
16969;SDS011;8601;48.718;8.992;2023-03-21T07:44:31;4.90;;;4.40;;
16969;SDS011;8601;48.718;8.992;2023-03-21T07:46:58;4.37;;;3.97;;
16969;SDS011;8601;48.718;8.992;2023-03-21T07:49:25;6.50;;;4.30;;
16969;SDS011;8601;48.718;8.992;2023-03-21T07:51:52;6.13;;;4.00;;
16969;SDS011;8601;48.718;8.992;2023-03-21T07:54:19;6.00;;;3.77;;
16969;SDS011;8601;48.718;8.992;2023-03-21T07:56:48;4.90;;;3.70;;
16969;SDS011;8601;48.718;8.992;2023-03-21T07:59:15;3.83;;;3.40;;
16969;SDS011;8601;48.718;8.992;2023-03-21T08:01:42;3.97;;;3.57;;
16969;SDS011;8601;48.718;8.992;2023-03-21T08:04:09;4.53;;;3.70;;
16969;SDS011;8601;48.718;8.992;2023-03-21T08:06:36;6.03;;;3.67;;
16969;SDS011;8601;48.718;8.992;2023-03-21T08:09:03;3.77;;;3.47;;
16969;SDS011;8601;48.718;8.992;2023-03-21T08:11:30;4.10;;;3.40;;
16969;SDS011;8601;48.718;8.992;2023-03-21T08:13:58;4.67;;;3.30;;
16969;SDS011;8601;48.718;8.992;2023-03-21T08:16:26;4.93;;;3.20;;
16969;SDS011;8601;48.718;8.992;2023-03-21T08:18:54;3.87;;;3.37;;
16969;SDS011;8601;48.718;8.992;2023-03-21T08:21:21;5.03;;;3.03;;
16969;SDS011;8601;48.718;8.992;2023-03-21T08:23:48;4.87;;;3.50;;
16969;SDS011;8601;48.718;8.992;2023-03-21T08:26:15;3.33;;;3.03;;
16969;SDS011;8601;48.718;8.992;2023-03-21T08:28:42;3.40;;;2.70;;
16969;SDS011;8601;48.718;8.992;2023-03-21T08:31:12;4.03;;;2.70;;
16969;SDS011;8601;48.718;8.992;2023-03-21T08:33:38;3.23;;;2.87;;
16969;SDS011;8601;48.718;8.992;2023-03-21T08:36:06;3.37;;;2.37;;
16969;SDS011;8601;48.718;8.992;2023-03-21T08:38:33;4.73;;;2.77;;
16969;SDS011;8601;48.718;8.992;2023-03-21T08:41:02;4.43;;;2.90;;
16969;SDS011;8601;48.718;8.992;2023-03-21T08:43:29;3.30;;;3.00;;
16969;SDS011;8601;48.718;8.992;2023-03-21T08:45:56;3.13;;;2.53;;
16969;SDS011;8601;48.718;8.992;2023-03-21T08:48:24;2.50;;;2.30;;
16969;SDS011;8601;48.718;8.992;2023-03-21T08:50:51;3.97;;;2.53;;
16969;SDS011;8601;48.718;8.992;2023-03-21T08:53:18;3.87;;;2.47;;
16969;SDS011;8601;48.718;8.992;2023-03-21T08:55:45;2.83;;;2.43;;
16969;SDS011;8601;48.718;8.992;2023-03-21T08:58:14;3.70;;;2.60;;
16969;SDS011;8601;48.718;8.992;2023-03-21T09:00:40;2.70;;;2.47;;
16969;SDS011;8601;48.718;8.992;2023-03-21T09:03:07;3.33;;;2.33;;
16969;SDS011;8601;48.718;8.992;2023-03-21T09:05:36;3.40;;;2.10;;
16969;SDS011;8601;48.718;8.992;2023-03-21T09:08:03;2.63;;;2.37;;
16969;SDS011;8601;48.718;8.992;2023-03-21T09:10:30;4.03;;;2.50;;
16969;SDS011;8601;48.718;8.992;2023-03-21T09:12:57;3.43;;;2.50;;
16969;SDS011;8601;48.718;8.992;2023-03-21T09:15:24;2.87;;;2.53;;
16969;SDS011;8601;48.718;8.992;2023-03-21T09:17:53;3.50;;;2.50;;
16969;SDS011;8601;48.718;8.992;2023-03-21T09:20:23;3.53;;;2.50;;
16969;SDS011;8601;48.718;8.992;2023-03-21T09:22:55;4.20;;;3.57;;
16969;SDS011;8601;48.718;8.992;2023-03-21T09:25:23;3.17;;;2.67;;
16969;SDS011;8601;48.718;8.992;2023-03-21T09:27:54;2.87;;;2.53;;
16969;SDS011;8601;48.718;8.992;2023-03-21T09:30:23;3.30;;;2.50;;
16969;SDS011;8601;48.718;8.992;2023-03-21T09:32:50;4.23;;;2.50;;
16969;SDS011;8601;48.718;8.992;2023-03-21T09:35:18;3.07;;;2.80;;
16969;SDS011;8601;48.718;8.992;2023-03-21T09:37:46;4.30;;;2.47;;
16969;SDS011;8601;48.718;8.992;2023-03-21T09:40:16;2.57;;;2.37;;
16969;SDS011;8601;48.718;8.992;2023-03-21T09:42:47;3.53;;;2.47;;
16969;SDS011;8601;48.718;8.992;2023-03-21T09:45:26;2.63;;;2.40;;
16969;SDS011;8601;48.718;8.992;2023-03-21T09:47:59;2.77;;;2.40;;
16969;SDS011;8601;48.718;8.992;2023-03-21T09:50:28;2.83;;;2.43;;
16969;SDS011;8601;48.718;8.992;2023-03-21T09:52:58;3.90;;;2.40;;
16969;SDS011;8601;48.718;8.992;2023-03-21T09:55:31;4.00;;;2.37;;
16969;SDS011;8601;48.718;8.992;2023-03-21T09:58:04;4.20;;;2.57;;
16969;SDS011;8601;48.718;8.992;2023-03-21T10:00:34;2.63;;;2.10;;
16969;SDS011;8601;48.718;8.992;2023-03-21T10:03:04;6.33;;;2.90;;
16969;SDS011;8601;48.718;8.992;2023-03-21T10:05:39;3.13;;;2.40;;
16969;SDS011;8601;48.718;8.992;2023-03-21T10:08:11;4.20;;;2.77;;
16969;SDS011;8601;48.718;8.992;2023-03-21T10:10:45;3.20;;;2.30;;
16969;SDS011;8601;48.718;8.992;2023-03-21T10:13:16;3.13;;;2.03;;
16969;SDS011;8601;48.718;8.992;2023-03-21T10:15:46;2.40;;;2.20;;
16969;SDS011;8601;48.718;8.992;2023-03-21T10:18:15;2.40;;;2.20;;
16969;SDS011;8601;48.718;8.992;2023-03-21T10:20:47;3.13;;;2.33;;
16969;SDS011;8601;48.718;8.992;2023-03-21T10:23:15;3.03;;;2.40;;
16969;SDS011;8601;48.718;8.992;2023-03-21T10:25:46;2.30;;;1.70;;
16969;SDS011;8601;48.718;8.992;2023-03-21T10:28:18;1.90;;;1.70;;
16969;SDS011;8601;48.718;8.992;2023-03-21T10:30:47;3.93;;;2.03;;
16969;SDS011;8601;48.718;8.992;2023-03-21T10:33:17;2.50;;;1.90;;
16969;SDS011;8601;48.718;8.992;2023-03-21T10:35:48;1.70;;;1.60;;
16969;SDS011;8601;48.718;8.992;2023-03-21T10:38:18;2.53;;;1.70;;
16969;SDS011;8601;48.718;8.992;2023-03-21T10:40:49;1.60;;;1.50;;
16969;SDS011;8601;48.718;8.992;2023-03-21T10:43:30;2.30;;;1.50;;
16969;SDS011;8601;48.718;8.992;2023-03-21T10:46:05;1.77;;;1.50;;
16969;SDS011;8601;48.718;8.992;2023-03-21T10:48:34;1.63;;;1.53;;
16969;SDS011;8601;48.718;8.992;2023-03-21T10:51:04;2.00;;;1.80;;
16969;SDS011;8601;48.718;8.992;2023-03-21T10:53:34;3.40;;;1.80;;
16969;SDS011;8601;48.718;8.992;2023-03-21T10:56:06;2.10;;;2.00;;
16969;SDS011;8601;48.718;8.992;2023-03-21T10:58:37;3.80;;;1.90;;
16969;SDS011;8601;48.718;8.992;2023-03-21T11:01:09;5.53;;;3.50;;
16969;SDS011;8601;48.718;8.992;2023-03-21T11:03:39;2.13;;;1.93;;
16969;SDS011;8601;48.718;8.992;2023-03-21T11:06:10;9.17;;;6.57;;
16969;SDS011;8601;48.718;8.992;2023-03-21T11:08:40;3.00;;;2.40;;
16969;SDS011;8601;48.718;8.992;2023-03-21T11:11:17;3.23;;;2.53;;
16969;SDS011;8601;48.718;8.992;2023-03-21T11:13:47;3.37;;;2.23;;
16969;SDS011;8601;48.718;8.992;2023-03-21T11:16:23;2.20;;;1.90;;
16969;SDS011;8601;48.718;8.992;2023-03-21T11:18:55;2.00;;;1.90;;
16969;SDS011;8601;48.718;8.992;2023-03-21T11:21:25;2.47;;;2.27;;
16969;SDS011;8601;48.718;8.992;2023-03-21T11:23:52;3.20;;;2.43;;
16969;SDS011;8601;48.718;8.992;2023-03-21T11:26:24;2.70;;;2.23;;
16969;SDS011;8601;48.718;8.992;2023-03-21T11:28:53;3.73;;;2.90;;
16969;SDS011;8601;48.718;8.992;2023-03-21T11:31:35;2.63;;;2.43;;
16969;SDS011;8601;48.718;8.992;2023-03-21T11:34:04;2.90;;;2.60;;
16969;SDS011;8601;48.718;8.992;2023-03-21T11:36:33;3.63;;;2.93;;
16969;SDS011;8601;48.718;8.992;2023-03-21T11:39:12;3.03;;;2.50;;
16969;SDS011;8601;48.718;8.992;2023-03-21T11:41:51;5.23;;;2.90;;
16969;SDS011;8601;48.718;8.992;2023-03-21T11:44:26;3.97;;;2.60;;
16969;SDS011;8601;48.718;8.992;2023-03-21T11:46:54;4.63;;;3.30;;
16969;SDS011;8601;48.718;8.992;2023-03-21T11:49:23;3.50;;;3.20;;
16969;SDS011;8601;48.718;8.992;2023-03-21T11:51:53;2.97;;;2.67;;
16969;SDS011;8601;48.718;8.992;2023-03-21T11:54:47;3.20;;;2.90;;
16969;SDS011;8601;48.718;8.992;2023-03-21T11:57:34;4.40;;;2.80;;
16969;SDS011;8601;48.718;8.992;2023-03-21T12:00:10;3.70;;;2.77;;
16969;SDS011;8601;48.718;8.992;2023-03-21T12:02:52;3.07;;;2.40;;
16969;SDS011;8601;48.718;8.992;2023-03-21T12:05:45;3.60;;;2.40;;
16969;SDS011;8601;48.718;8.992;2023-03-21T12:08:22;2.67;;;2.47;;
16969;SDS011;8601;48.718;8.992;2023-03-21T12:11:00;2.50;;;2.30;;
16969;SDS011;8601;48.718;8.992;2023-03-21T12:13:43;2.63;;;2.37;;
16969;SDS011;8601;48.718;8.992;2023-03-21T12:16:27;2.90;;;2.50;;
16969;SDS011;8601;48.718;8.992;2023-03-21T12:19:12;3.40;;;2.70;;
16969;SDS011;8601;48.718;8.992;2023-03-21T12:21:49;3.50;;;2.83;;
16969;SDS011;8601;48.718;8.992;2023-03-21T12:24:22;3.27;;;2.50;;
16969;SDS011;8601;48.718;8.992;2023-03-21T12:26:55;2.87;;;2.43;;
16969;SDS011;8601;48.718;8.992;2023-03-21T12:29:35;2.10;;;1.90;;
16969;SDS011;8601;48.718;8.992;2023-03-21T12:32:28;3.43;;;2.33;;
16969;SDS011;8601;48.718;8.992;2023-03-21T12:35:13;2.10;;;2.00;;
16969;SDS011;8601;48.718;8.992;2023-03-21T12:37:56;9.10;;;5.90;;
16969;SDS011;8601;48.718;8.992;2023-03-21T12:40:38;5.30;;;2.40;;
16969;SDS011;8601;48.718;8.992;2023-03-21T12:43:21;2.70;;;2.37;;
16969;SDS011;8601;48.718;8.992;2023-03-21T12:46:04;2.20;;;2.00;;
16969;SDS011;8601;48.718;8.992;2023-03-21T12:48:39;5.27;;;2.27;;
16969;SDS011;8601;48.718;8.992;2023-03-21T12:51:10;3.17;;;1.90;;
16969;SDS011;8601;48.718;8.992;2023-03-21T12:53:43;2.13;;;1.70;;
16969;SDS011;8601;48.718;8.992;2023-03-21T12:56:31;3.80;;;2.13;;
16969;SDS011;8601;48.718;8.992;2023-03-21T12:59:05;1.90;;;1.43;;
16969;SDS011;8601;48.718;8.992;2023-03-21T13:01:52;2.87;;;2.00;;
16969;SDS011;8601;48.718;8.992;2023-03-21T13:04:31;3.27;;;2.37;;
16969;SDS011;8601;48.718;8.992;2023-03-21T13:07:04;1.90;;;1.70;;
16969;SDS011;8601;48.718;8.992;2023-03-21T13:09:35;2.17;;;1.70;;
16969;SDS011;8601;48.718;8.992;2023-03-21T13:12:07;2.87;;;1.70;;
16969;SDS011;8601;48.718;8.992;2023-03-21T13:14:47;1.80;;;1.70;;
16969;SDS011;8601;48.718;8.992;2023-03-21T13:17:27;2.50;;;2.23;;
16969;SDS011;8601;48.718;8.992;2023-03-21T13:20:03;2.07;;;1.90;;
16969;SDS011;8601;48.718;8.992;2023-03-21T13:22:40;2.10;;;1.70;;
16969;SDS011;8601;48.718;8.992;2023-03-21T13:25:14;3.53;;;2.13;;
16969;SDS011;8601;48.718;8.992;2023-03-21T13:27:46;3.63;;;2.20;;
16969;SDS011;8601;48.718;8.992;2023-03-21T13:30:18;2.33;;;2.10;;
16969;SDS011;8601;48.718;8.992;2023-03-21T13:32:47;2.90;;;2.10;;
16969;SDS011;8601;48.718;8.992;2023-03-21T13:35:18;2.70;;;2.00;;
16969;SDS011;8601;48.718;8.992;2023-03-21T13:37:51;2.97;;;2.20;;
16969;SDS011;8601;48.718;8.992;2023-03-21T13:40:22;3.03;;;1.77;;
16969;SDS011;8601;48.718;8.992;2023-03-21T13:42:51;1.93;;;1.73;;
16969;SDS011;8601;48.718;8.992;2023-03-21T13:45:25;3.00;;;2.00;;
16969;SDS011;8601;48.718;8.992;2023-03-21T13:47:56;3.70;;;2.17;;
16969;SDS011;8601;48.718;8.992;2023-03-21T13:50:28;3.57;;;1.90;;
16969;SDS011;8601;48.718;8.992;2023-03-21T13:58:53;2.30;;;2.10;;
16969;SDS011;8601;48.718;8.992;2023-03-21T14:01:25;4.60;;;2.03;;
16969;SDS011;8601;48.718;8.992;2023-03-21T14:03:58;3.27;;;2.10;;
16969;SDS011;8601;48.718;8.992;2023-03-21T14:06:31;2.77;;;2.33;;
16969;SDS011;8601;48.718;8.992;2023-03-21T14:09:02;2.40;;;2.07;;
16969;SDS011;8601;48.718;8.992;2023-03-21T14:11:31;3.90;;;2.03;;
16969;SDS011;8601;48.718;8.992;2023-03-21T14:13:59;2.47;;;2.00;;
16969;SDS011;8601;48.718;8.992;2023-03-21T14:16:27;3.30;;;1.97;;
16969;SDS011;8601;48.718;8.992;2023-03-21T14:18:58;2.70;;;2.23;;
16969;SDS011;8601;48.718;8.992;2023-03-21T14:21:30;3.43;;;2.00;;
16969;SDS011;8601;48.718;8.992;2023-03-21T14:23:59;2.87;;;2.30;;
16969;SDS011;8601;48.718;8.992;2023-03-21T14:26:28;2.40;;;2.20;;
16969;SDS011;8601;48.718;8.992;2023-03-21T14:28:57;2.10;;;1.90;;
16969;SDS011;8601;48.718;8.992;2023-03-21T14:31:26;3.80;;;1.90;;
16969;SDS011;8601;48.718;8.992;2023-03-21T14:33:55;2.67;;;1.83;;
16969;SDS011;8601;48.718;8.992;2023-03-21T14:36:26;4.00;;;2.00;;
16969;SDS011;8601;48.718;8.992;2023-03-21T14:39:02;8.67;;;6.20;;
16969;SDS011;8601;48.718;8.992;2023-03-21T14:41:31;1.97;;;1.77;;
16969;SDS011;8601;48.718;8.992;2023-03-21T14:44:10;1.77;;;1.63;;
16969;SDS011;8601;48.718;8.992;2023-03-21T14:46:40;2.93;;;1.87;;
16969;SDS011;8601;48.718;8.992;2023-03-21T14:49:11;2.67;;;2.10;;
16969;SDS011;8601;48.718;8.992;2023-03-21T14:51:41;2.40;;;1.83;;
16969;SDS011;8601;48.718;8.992;2023-03-21T14:54:11;2.13;;;1.63;;
16969;SDS011;8601;48.718;8.992;2023-03-21T14:56:42;2.23;;;1.97;;
16969;SDS011;8601;48.718;8.992;2023-03-21T14:59:13;1.67;;;1.50;;
16969;SDS011;8601;48.718;8.992;2023-03-21T15:01:42;1.80;;;1.70;;
16969;SDS011;8601;48.718;8.992;2023-03-21T15:04:13;2.97;;;2.07;;
16969;SDS011;8601;48.718;8.992;2023-03-21T15:06:50;1.70;;;1.60;;
16969;SDS011;8601;48.718;8.992;2023-03-21T15:09:18;1.63;;;1.37;;
16969;SDS011;8601;48.718;8.992;2023-03-21T15:11:48;3.27;;;1.50;;
16969;SDS011;8601;48.718;8.992;2023-03-21T15:14:17;1.93;;;1.17;;
16969;SDS011;8601;48.718;8.992;2023-03-21T15:16:48;1.40;;;1.30;;
16969;SDS011;8601;48.718;8.992;2023-03-21T15:19:16;2.73;;;1.60;;
16969;SDS011;8601;48.718;8.992;2023-03-21T15:21:50;1.60;;;1.50;;
16969;SDS011;8601;48.718;8.992;2023-03-21T15:24:20;2.67;;;2.03;;
16969;SDS011;8601;48.718;8.992;2023-03-21T15:26:52;3.07;;;2.60;;
16969;SDS011;8601;48.718;8.992;2023-03-21T15:29:23;3.30;;;2.27;;
16969;SDS011;8601;48.718;8.992;2023-03-21T15:31:51;2.97;;;2.10;;
16969;SDS011;8601;48.718;8.992;2023-03-21T15:34:20;2.10;;;1.90;;